createdAt,value
2023-11-30T00:00:46.658Z,30.33
2023-11-30T00:03:13.297Z,32.55
2023-11-30T00:05:39.849Z,37.42
2023-11-30T00:08:06.451Z,32.95
2023-11-30T00:10:33.044Z,38.70
2023-11-30T00:12:59.639Z,37.20
2023-11-30T00:15:26.263Z,36.58
2023-11-30T00:17:52.914Z,32.42
2023-11-30T00:20:19.567Z,34.08
2023-11-30T00:22:47.943Z,27.40
2023-11-30T00:25:14.557Z,35.67
2023-11-30T00:27:41.335Z,38.28
2023-11-30T00:30:08.268Z,29.75
2023-11-30T00:32:36.806Z,24.25
2023-11-30T00:35:03.763Z,31.92
2023-11-30T00:37:30.836Z,36.60
2023-11-30T00:39:57.363Z,39.40
2023-11-30T00:42:24.131Z,34.70
2023-11-30T00:44:50.773Z,30.30
2023-11-30T00:47:17.414Z,30.90
2023-11-30T00:49:44.038Z,26.35
2023-11-30T00:52:10.654Z,30.08
2023-11-30T00:54:37.175Z,40.08
2023-11-30T00:57:04.922Z,31.27
2023-11-30T00:59:31.682Z,45.53
2023-11-30T01:01:58.612Z,37.33
2023-11-30T01:04:25.374Z,32.20
2023-11-30T01:06:52.159Z,32.17
2023-11-30T01:09:19.133Z,36.30
2023-11-30T01:11:45.755Z,32.38
2023-11-30T01:14:12.516Z,30.85
2023-11-30T01:16:40.331Z,34.88
2023-11-30T01:19:07.303Z,33.35
2023-11-30T01:21:34.035Z,29.27
2023-11-30T01:24:00.715Z,27.42
2023-11-30T01:26:27.396Z,28.02
2023-11-30T01:28:54.110Z,25.30
2023-11-30T01:31:20.738Z,26.17
2023-11-30T01:33:47.350Z,26.48
2023-11-30T01:36:14.914Z,29.65
2023-11-30T01:38:41.895Z,28.38
2023-11-30T01:41:08.931Z,29.83
2023-11-30T01:43:35.726Z,28.08
2023-11-30T01:46:04.141Z,30.75
2023-11-30T01:48:32.085Z,31.85
2023-11-30T01:50:59.155Z,27.13
2023-11-30T01:53:29.964Z,26.65
2023-11-30T01:55:57.877Z,29.42
2023-11-30T01:58:24.445Z,31.92
2023-11-30T02:00:51.413Z,26.75
2023-11-30T02:03:18.403Z,26.90
2023-11-30T02:05:46.030Z,26.35
2023-11-30T02:08:12.630Z,31.27
2023-11-30T02:10:39.424Z,28.45
2023-11-30T02:13:06.004Z,30.38
2023-11-30T02:15:32.583Z,32.35
2023-11-30T02:17:59.569Z,31.40
2023-11-30T02:20:26.430Z,30.23
2023-11-30T02:22:53.319Z,28.38
2023-11-30T02:25:19.905Z,30.23
2023-11-30T02:27:46.798Z,25.92
2023-11-30T02:30:13.669Z,30.35
2023-11-30T02:32:40.281Z,38.42
2023-11-30T02:35:07.205Z,35.35
2023-11-30T02:37:34.939Z,26.98
2023-11-30T02:40:02.094Z,31.77
2023-11-30T02:42:28.741Z,41.35
2023-11-30T02:44:55.469Z,36.35
2023-11-30T02:47:22.072Z,27.20
2023-11-30T02:49:48.627Z,29.30
2023-11-30T02:52:15.265Z,31.00
2023-11-30T02:54:42.087Z,34.50
2023-11-30T02:57:08.792Z,27.40
2023-11-30T02:59:35.507Z,35.33
2023-11-30T03:02:02.461Z,38.58
2023-11-30T03:04:29.167Z,32.15
2023-11-30T03:06:55.778Z,41.83
2023-11-30T03:09:22.842Z,30.77
2023-11-30T03:11:49.544Z,32.65
2023-11-30T03:14:16.115Z,29.45
2023-11-30T03:16:43.875Z,39.60
2023-11-30T03:19:16.766Z,30.58
2023-11-30T03:21:44.493Z,28.23
2023-11-30T03:24:11.308Z,29.15
2023-11-30T03:26:37.973Z,29.77
2023-11-30T03:29:05.759Z,29.58
2023-11-30T03:31:32.801Z,35.10
2023-11-30T03:33:59.441Z,26.17
2023-11-30T03:36:26.326Z,30.83
2023-11-30T03:38:56.877Z,31.63
2023-11-30T03:41:24.015Z,27.55
2023-11-30T03:43:50.537Z,40.90
2023-11-30T03:46:17.271Z,34.78
2023-11-30T03:48:43.934Z,30.10
2023-11-30T03:51:10.985Z,30.25
2023-11-30T03:53:37.728Z,26.58
2023-11-30T03:56:04.529Z,33.38
2023-11-30T03:58:31.109Z,37.38
2023-11-30T04:00:57.694Z,34.65
2023-11-30T04:03:24.345Z,36.55
2023-11-30T04:05:51.142Z,26.52
2023-11-30T04:08:18.440Z,34.60
2023-11-30T04:10:45.349Z,34.97
2023-11-30T04:13:12.516Z,38.42
2023-11-30T04:15:39.110Z,32.88
2023-11-30T04:18:05.876Z,34.92
2023-11-30T04:20:32.506Z,35.25
2023-11-30T04:22:59.046Z,31.02
2023-11-30T04:25:25.989Z,34.35
2023-11-30T04:27:52.707Z,29.23
2023-11-30T04:30:19.644Z,31.65
2023-11-30T04:32:46.393Z,29.55
2023-11-30T04:35:13.056Z,33.42
2023-11-30T04:37:39.597Z,32.47
2023-11-30T04:40:07.557Z,32.78
2023-11-30T04:42:34.255Z,32.47
2023-11-30T04:45:00.956Z,43.13
2023-11-30T04:47:27.790Z,36.20
2023-11-30T04:49:54.461Z,36.05
2023-11-30T04:52:21.179Z,35.60
2023-11-30T04:54:47.748Z,34.08
2023-11-30T04:57:15.425Z,27.63
2023-11-30T04:59:42.115Z,38.58
2023-11-30T05:02:09.241Z,32.38
2023-11-30T05:04:36.020Z,41.88
2023-11-30T05:07:02.710Z,34.42
2023-11-30T05:09:29.270Z,40.78
2023-11-30T05:11:55.906Z,34.13
2023-11-30T05:14:22.549Z,33.20
2023-11-30T05:16:49.223Z,43.88
2023-11-30T05:19:15.993Z,41.60
2023-11-30T05:21:42.556Z,65.38
2023-11-30T05:24:09.169Z,49.72
2023-11-30T05:26:35.894Z,49.65
2023-11-30T05:29:02.464Z,41.78
2023-11-30T05:31:28.999Z,72.55
2023-11-30T05:33:55.713Z,51.25
2023-11-30T05:36:23.034Z,53.67
2023-11-30T05:38:49.953Z,63.63
2023-11-30T05:41:17.863Z,50.63
2023-11-30T05:43:44.450Z,55.05
2023-11-30T05:46:11.391Z,84.07
2023-11-30T05:48:38.180Z,141.35
2023-11-30T05:51:04.890Z,98.43
2023-11-30T05:53:31.655Z,68.63
2023-11-30T05:55:58.437Z,60.92
2023-11-30T05:58:25.039Z,52.67
2023-11-30T06:00:51.791Z,74.07
2023-11-30T06:03:19.944Z,78.03
2023-11-30T06:05:46.650Z,49.45
2023-11-30T06:08:13.204Z,54.95
2023-11-30T06:10:39.860Z,76.78
2023-11-30T06:13:08.823Z,54.70
2023-11-30T06:15:35.782Z,126.30
2023-11-30T06:18:02.492Z,104.60
2023-11-30T06:20:29.192Z,91.65
2023-11-30T06:22:55.772Z,66.60
2023-11-30T06:25:22.520Z,73.80
2023-11-30T06:27:49.092Z,47.58
2023-11-30T06:30:16.073Z,71.20
2023-11-30T06:32:42.806Z,51.60
2023-11-30T06:35:09.842Z,61.97
2023-11-30T06:37:36.500Z,47.63
2023-11-30T06:40:03.193Z,57.40
2023-11-30T06:42:29.939Z,44.17
2023-11-30T06:44:56.496Z,58.17
2023-11-30T06:47:23.151Z,60.10
2023-11-30T06:49:49.851Z,56.53
2023-11-30T06:52:17.056Z,56.00
2023-11-30T06:54:43.602Z,80.07
2023-11-30T06:57:11.159Z,85.60
2023-11-30T06:59:37.979Z,58.75
2023-11-30T07:02:04.971Z,60.50
2023-11-30T07:04:31.588Z,54.63
2023-11-30T07:06:58.331Z,45.33
2023-11-30T07:09:24.961Z,50.90
2023-11-30T07:11:51.444Z,56.65
2023-11-30T07:14:18.185Z,46.05
2023-11-30T07:16:44.900Z,56.38
2023-11-30T07:19:11.479Z,61.50
2023-11-30T07:21:38.473Z,50.75
2023-11-30T07:24:05.667Z,51.78
2023-11-30T07:26:32.205Z,59.85
2023-11-30T07:28:58.790Z,42.88
2023-11-30T07:31:25.896Z,53.33
2023-11-30T07:33:52.607Z,56.70
2023-11-30T07:36:19.393Z,40.13
2023-11-30T07:38:46.142Z,54.40
2023-11-30T07:41:13.389Z,51.10
2023-11-30T07:43:39.991Z,60.42
2023-11-30T07:46:06.841Z,44.80
2023-11-30T07:48:33.997Z,45.75
2023-11-30T07:51:00.685Z,55.40
2023-11-30T07:53:27.302Z,47.67
2023-11-30T07:55:57.760Z,48.30
2023-11-30T07:58:24.877Z,55.90
2023-11-30T08:00:52.279Z,51.97
2023-11-30T08:03:18.992Z,60.25
2023-11-30T08:05:45.965Z,62.35
2023-11-30T08:08:13.190Z,58.17
2023-11-30T08:10:40.482Z,51.72
2023-11-30T08:13:07.207Z,63.08
2023-11-30T08:15:34.302Z,68.03
2023-11-30T08:18:02.312Z,62.22
2023-11-30T08:20:29.009Z,64.15
2023-11-30T08:22:56.167Z,63.85
2023-11-30T08:25:22.636Z,60.17
2023-11-30T08:27:54.076Z,56.97
2023-11-30T08:30:21.775Z,61.05
2023-11-30T08:32:48.428Z,58.20
2023-11-30T08:35:15.101Z,48.85
2023-11-30T08:37:41.937Z,52.67
2023-11-30T08:40:09.419Z,57.10
2023-11-30T08:42:36.797Z,55.20
2023-11-30T08:45:04.131Z,52.05
2023-11-30T08:47:30.822Z,52.45
2023-11-30T08:49:57.473Z,47.53
2023-11-30T08:52:24.488Z,56.38
2023-11-30T08:54:52.577Z,53.58
2023-11-30T08:57:20.066Z,57.03
2023-11-30T08:59:47.435Z,49.75
2023-11-30T09:02:14.646Z,55.00
2023-11-30T09:04:41.728Z,63.42
2023-11-30T09:07:08.698Z,60.05
2023-11-30T09:09:35.943Z,59.88
2023-11-30T09:12:03.580Z,55.20
2023-11-30T09:14:33.426Z,65.40
2023-11-30T09:17:03.090Z,63.60
2023-11-30T09:19:29.674Z,57.78
2023-11-30T09:21:56.395Z,69.28
2023-11-30T09:24:23.663Z,76.13
2023-11-30T09:26:52.313Z,86.78
2023-11-30T09:29:18.979Z,84.40
2023-11-30T09:31:46.240Z,73.05
2023-11-30T09:34:13.138Z,118.43
2023-11-30T09:36:40.839Z,116.90
2023-11-30T09:39:10.855Z,113.10
2023-11-30T09:41:40.227Z,134.95
2023-11-30T09:44:07.372Z,125.82
2023-11-30T09:46:34.283Z,200.90
2023-11-30T09:49:01.301Z,125.63
2023-11-30T09:51:31.575Z,238.93
2023-11-30T09:53:58.817Z,158.18
2023-11-30T09:56:27.406Z,175.20
2023-11-30T09:58:54.561Z,249.98
2023-11-30T10:01:21.531Z,199.73
2023-11-30T10:03:48.252Z,188.57
2023-11-30T10:06:15.708Z,102.25
2023-11-30T10:08:42.843Z,175.32
2023-11-30T10:11:10.099Z,200.43
2023-11-30T10:13:37.165Z,332.75
2023-11-30T10:16:06.402Z,257.98
2023-11-30T10:18:34.571Z,281.35
2023-11-30T10:21:01.977Z,355.75
2023-11-30T10:23:28.661Z,278.00
2023-11-30T10:25:56.739Z,328.80
2023-11-30T10:28:23.912Z,255.60
2023-11-30T10:30:57.146Z,465.02
2023-11-30T10:33:24.916Z,424.45
2023-11-30T10:35:52.982Z,237.73
2023-11-30T10:38:22.583Z,451.33
2023-11-30T10:40:50.816Z,189.15
2023-11-30T10:43:18.084Z,197.82
2023-11-30T10:45:46.296Z,305.27
2023-11-30T10:48:13.556Z,450.08
2023-11-30T10:50:41.817Z,361.83
2023-11-30T10:53:14.367Z,239.25
2023-11-30T10:55:41.455Z,291.05
2023-11-30T10:58:08.326Z,258.90
2023-11-30T11:00:35.575Z,355.92
2023-11-30T11:03:08.134Z,197.82
2023-11-30T11:05:36.209Z,214.95
2023-11-30T11:08:03.478Z,157.38
2023-11-30T11:10:32.871Z,163.13
2023-11-30T11:13:00.268Z,218.35
2023-11-30T11:15:31.290Z,423.95
2023-11-30T11:18:04.122Z,166.05
2023-11-30T11:20:31.711Z,233.50
2023-11-30T11:23:10.798Z,152.07
2023-11-30T11:25:40.187Z,156.07
2023-11-30T11:28:07.439Z,218.13
2023-11-30T11:30:38.331Z,247.45
2023-11-30T11:33:06.153Z,171.13
2023-11-30T11:35:32.920Z,280.58
2023-11-30T11:38:00.254Z,173.52
2023-11-30T11:40:27.636Z,150.32
2023-11-30T11:42:54.725Z,152.98
2023-11-30T11:45:22.493Z,130.88
2023-11-30T11:47:49.490Z,121.13
2023-11-30T11:50:16.150Z,136.55
2023-11-30T11:52:42.702Z,85.18
2023-11-30T11:55:11.208Z,112.63
2023-11-30T11:57:38.906Z,80.20
2023-11-30T12:00:06.817Z,93.47
2023-11-30T12:02:35.144Z,88.25
2023-11-30T12:05:08.180Z,104.60
2023-11-30T12:07:35.032Z,78.85
2023-11-30T12:10:02.116Z,74.45
2023-11-30T12:12:32.823Z,65.45
2023-11-30T12:14:59.613Z,80.90
2023-11-30T12:17:26.290Z,89.20
2023-11-30T12:19:52.894Z,61.20
2023-11-30T12:22:19.530Z,64.90
2023-11-30T12:24:46.093Z,60.85
2023-11-30T12:27:12.944Z,60.88
2023-11-30T12:29:39.538Z,63.40
2023-11-30T12:32:06.434Z,62.53
2023-11-30T12:34:33.475Z,60.60
2023-11-30T12:37:00.251Z,66.13
2023-11-30T12:39:27.024Z,65.05
2023-11-30T12:41:54.186Z,61.25
2023-11-30T12:44:21.615Z,56.85
2023-11-30T12:46:48.321Z,62.38
2023-11-30T12:49:15.115Z,62.67
2023-11-30T12:51:41.725Z,55.80
2023-11-30T12:54:09.001Z,57.85
2023-11-30T12:56:35.728Z,57.63
2023-11-30T12:59:02.445Z,56.47
2023-11-30T13:01:29.219Z,58.08
2023-11-30T13:03:55.916Z,56.17
2023-11-30T13:06:22.662Z,56.15
2023-11-30T13:08:49.297Z,52.58
2023-11-30T13:11:15.967Z,52.10
2023-11-30T13:13:47.269Z,53.20
2023-11-30T13:16:14.548Z,51.80
2023-11-30T13:18:41.225Z,77.32
2023-11-30T13:21:07.924Z,55.85
2023-11-30T13:23:34.438Z,60.95
2023-11-30T13:26:01.010Z,61.08
2023-11-30T13:28:35.409Z,57.97
2023-11-30T13:31:07.682Z,55.83
2023-11-30T13:33:34.549Z,57.17
2023-11-30T13:36:01.180Z,59.85
2023-11-30T13:38:27.654Z,56.58
2023-11-30T13:40:54.333Z,54.47
2023-11-30T13:43:21.169Z,59.67
2023-11-30T13:45:47.970Z,57.13
2023-11-30T13:48:15.944Z,68.00
2023-11-30T13:50:52.507Z,65.00
2023-11-30T13:53:23.037Z,56.92
2023-11-30T13:55:49.605Z,58.17
2023-11-30T13:58:16.423Z,63.22
2023-11-30T14:00:43.808Z,61.33
2023-11-30T14:03:10.626Z,56.75
2023-11-30T14:05:37.570Z,55.78
2023-11-30T14:08:04.306Z,59.00
2023-11-30T14:10:31.147Z,61.15
2023-11-30T14:12:58.132Z,55.28
2023-11-30T14:15:24.719Z,58.67
2023-11-30T14:17:51.462Z,50.45
2023-11-30T14:20:18.412Z,52.30
2023-11-30T14:22:45.965Z,52.85
2023-11-30T14:25:13.855Z,59.92
2023-11-30T14:27:40.616Z,52.90
2023-11-30T14:30:10.853Z,54.03
2023-11-30T14:32:40.141Z,50.30
2023-11-30T14:35:07.317Z,55.78
2023-11-30T14:37:33.847Z,53.47
2023-11-30T14:40:00.495Z,51.70
2023-11-30T14:42:27.079Z,48.97
2023-11-30T14:44:53.752Z,46.17
2023-11-30T14:47:26.399Z,50.30
2023-11-30T14:49:53.764Z,52.13
2023-11-30T14:52:20.433Z,55.00
2023-11-30T14:54:53.344Z,50.60
2023-11-30T14:57:20.887Z,49.97
2023-11-30T14:59:48.215Z,49.85
2023-11-30T15:02:15.177Z,50.05
2023-11-30T15:04:41.983Z,45.53
2023-11-30T15:07:09.006Z,49.17
2023-11-30T15:09:35.857Z,51.30
2023-11-30T15:12:02.647Z,67.78
2023-11-30T15:14:29.342Z,52.65
2023-11-30T15:16:55.999Z,43.20
2023-11-30T15:19:23.509Z,47.25
2023-11-30T15:21:50.217Z,44.22
2023-11-30T15:24:17.132Z,50.53
2023-11-30T15:26:44.039Z,48.17
2023-11-30T15:29:11.215Z,44.20
2023-11-30T15:31:37.854Z,43.30
2023-11-30T15:34:04.572Z,44.42
2023-11-30T15:36:31.304Z,44.97
2023-11-30T15:39:08.993Z,43.13
2023-11-30T15:41:40.888Z,45.58
2023-11-30T15:44:07.656Z,44.88
2023-11-30T15:46:35.585Z,45.90
2023-11-30T15:49:02.461Z,43.67
2023-11-30T15:51:29.126Z,39.05
2023-11-30T15:53:55.765Z,40.72
2023-11-30T15:56:22.856Z,43.63
2023-11-30T15:58:49.877Z,49.38
2023-11-30T16:01:16.475Z,39.08
2023-11-30T16:03:43.409Z,46.13
2023-11-30T16:06:11.410Z,55.22
2023-11-30T16:08:38.338Z,44.35
2023-11-30T16:11:05.202Z,43.33
2023-11-30T16:13:31.739Z,44.42
2023-11-30T16:15:58.429Z,40.17
2023-11-30T16:18:25.581Z,40.38
2023-11-30T16:20:52.247Z,45.13
2023-11-30T16:23:18.832Z,40.90
2023-11-30T16:25:45.492Z,47.40
2023-11-30T16:28:12.277Z,40.95
2023-11-30T16:30:38.990Z,37.60
2023-11-30T16:33:06.077Z,43.85
2023-11-30T16:35:32.698Z,39.05
2023-11-30T16:37:59.522Z,42.35
2023-11-30T16:40:26.343Z,45.97
2023-11-30T16:42:53.127Z,41.28
2023-11-30T16:45:19.729Z,53.80
2023-11-30T16:47:46.310Z,47.60
2023-11-30T16:50:15.798Z,44.03
2023-11-30T16:52:43.368Z,40.85
2023-11-30T16:55:10.208Z,41.70
2023-11-30T16:57:37.108Z,43.13
2023-11-30T17:00:07.358Z,47.10
2023-11-30T17:02:34.368Z,46.20
2023-11-30T17:05:01.070Z,39.35
2023-11-30T17:07:27.726Z,35.55
2023-11-30T17:09:54.370Z,37.17
2023-11-30T17:12:22.767Z,52.50
2023-11-30T17:14:49.431Z,45.17
2023-11-30T17:17:16.026Z,45.60
2023-11-30T17:19:42.684Z,41.00
2023-11-30T17:22:09.442Z,44.40
2023-11-30T17:24:36.189Z,46.85
2023-11-30T17:27:04.065Z,45.30
2023-11-30T17:29:30.652Z,45.55
2023-11-30T17:31:58.037Z,44.65
2023-11-30T17:34:24.980Z,48.05
2023-11-30T17:36:52.194Z,50.70
2023-11-30T17:39:19.068Z,54.40
2023-11-30T17:41:45.763Z,44.92
2023-11-30T17:44:12.466Z,48.13
2023-11-30T17:46:39.783Z,51.78
2023-11-30T17:49:06.821Z,52.35
2023-11-30T17:51:33.849Z,53.25
2023-11-30T17:54:00.715Z,56.92
2023-11-30T17:56:27.434Z,57.40
2023-11-30T17:58:54.152Z,52.30
2023-11-30T18:01:20.835Z,42.95
2023-11-30T18:03:47.763Z,59.80
2023-11-30T18:06:14.462Z,48.20
2023-11-30T18:08:41.047Z,61.20
2023-11-30T18:11:08.024Z,55.70
2023-11-30T18:13:34.805Z,53.30
2023-11-30T18:16:03.999Z,55.22
2023-11-30T18:18:49.892Z,60.42
2023-11-30T18:21:16.459Z,59.08
2023-11-30T18:23:43.109Z,63.38
2023-11-30T18:26:09.680Z,53.30
2023-11-30T18:28:36.399Z,67.00
2023-11-30T18:31:12.233Z,68.75
2023-11-30T18:33:46.878Z,59.22
2023-11-30T18:36:13.505Z,65.85
2023-11-30T18:38:47.709Z,68.68
2023-11-30T18:41:17.757Z,72.57
2023-11-30T18:43:44.451Z,87.97
2023-11-30T18:46:11.064Z,74.68
2023-11-30T18:48:37.911Z,92.45
2023-11-30T18:51:05.514Z,80.50
2023-11-30T18:53:32.388Z,85.40
2023-11-30T18:55:59.592Z,237.15
2023-11-30T18:58:26.140Z,242.82
2023-11-30T19:00:52.992Z,303.42
2023-11-30T19:03:19.852Z,125.38
2023-11-30T19:05:46.474Z,216.93
2023-11-30T19:08:14.874Z,419.65
2023-11-30T19:10:41.669Z,273.42
2023-11-30T19:13:08.335Z,357.90
2023-11-30T19:15:42.508Z,458.48
2023-11-30T19:18:09.211Z,510.13
2023-11-30T19:20:37.918Z,356.75
2023-11-30T19:23:04.638Z,347.75
2023-11-30T19:25:31.183Z,728.58
2023-11-30T19:27:58.111Z,517.17
2023-11-30T19:30:25.331Z,693.25
2023-11-30T19:32:52.763Z,605.88
2023-11-30T19:35:19.878Z,271.80
2023-11-30T19:37:46.714Z,521.28
2023-11-30T19:40:13.504Z,535.55
2023-11-30T19:42:40.536Z,480.85
2023-11-30T19:45:07.702Z,501.10
2023-11-30T19:47:34.929Z,536.15
2023-11-30T19:50:01.919Z,440.30
2023-11-30T19:52:29.242Z,424.20
2023-11-30T19:54:56.062Z,373.67
2023-11-30T19:57:25.711Z,184.85
2023-11-30T19:59:52.404Z,198.80
2023-11-30T20:02:19.132Z,107.53
2023-11-30T20:04:45.976Z,169.32
2023-11-30T20:07:12.628Z,259.30
2023-11-30T20:09:39.859Z,228.30
2023-11-30T20:12:06.844Z,264.05
2023-11-30T20:14:33.444Z,276.35
2023-11-30T20:17:00.761Z,340.38
2023-11-30T20:19:27.296Z,487.52
2023-11-30T20:21:53.989Z,300.88
2023-11-30T20:24:20.730Z,288.40
2023-11-30T20:26:48.630Z,280.83
2023-11-30T20:29:16.584Z,382.17
2023-11-30T20:31:43.369Z,297.73
2023-11-30T20:34:10.195Z,335.70
2023-11-30T20:36:36.818Z,368.20
2023-11-30T20:39:03.976Z,289.27
2023-11-30T20:41:30.567Z,302.02
2023-11-30T20:43:57.261Z,326.33
2023-11-30T20:46:24.541Z,220.35
2023-11-30T20:48:51.282Z,274.67
2023-11-30T20:51:18.479Z,240.75
2023-11-30T20:53:45.596Z,191.43
2023-11-30T20:56:12.361Z,243.27
2023-11-30T20:58:39.801Z,283.83
2023-11-30T21:01:06.814Z,270.52
2023-11-30T21:03:33.883Z,214.80
2023-11-30T21:06:02.070Z,245.70
2023-11-30T21:08:29.592Z,172.93
2023-11-30T21:10:56.101Z,111.25
2023-11-30T21:13:22.818Z,119.05
2023-11-30T21:15:49.509Z,105.25
2023-11-30T21:18:16.243Z,100.32
2023-11-30T21:20:42.964Z,91.70
2023-11-30T21:23:09.742Z,80.57
2023-11-30T21:25:36.492Z,93.68
2023-11-30T21:28:03.289Z,89.82
2023-11-30T21:30:30.220Z,82.97
2023-11-30T21:32:56.881Z,69.30
2023-11-30T21:35:23.518Z,84.10
2023-11-30T21:37:50.061Z,75.35
2023-11-30T21:40:16.821Z,71.75
2023-11-30T21:42:43.457Z,71.75
2023-11-30T21:45:10.353Z,64.82
2023-11-30T21:47:37.270Z,82.75
2023-11-30T21:50:17.547Z,74.68
2023-11-30T21:52:45.459Z,77.93
2023-11-30T21:55:12.376Z,70.50
2023-11-30T21:57:42.654Z,75.60
2023-11-30T22:00:12.207Z,80.95
2023-11-30T22:02:39.332Z,67.38
2023-11-30T22:05:06.466Z,73.20
2023-11-30T22:07:33.911Z,75.03
2023-11-30T22:10:00.518Z,75.70
2023-11-30T22:12:27.121Z,74.78
2023-11-30T22:14:54.025Z,67.85
2023-11-30T22:17:20.548Z,52.72
2023-11-30T22:19:47.463Z,54.20
2023-11-30T22:22:15.586Z,52.08
2023-11-30T22:24:42.559Z,43.75
2023-11-30T22:27:09.221Z,57.53
2023-11-30T22:29:36.016Z,52.58
2023-11-30T22:32:02.621Z,55.45
2023-11-30T22:34:29.203Z,47.60
2023-11-30T22:36:56.335Z,52.92
2023-11-30T22:39:23.263Z,59.38
2023-11-30T22:41:53.160Z,51.78
2023-11-30T22:44:19.892Z,64.32
2023-11-30T22:46:46.951Z,57.25
2023-11-30T22:49:15.900Z,54.55
2023-11-30T22:51:43.272Z,55.40
2023-11-30T22:54:09.898Z,51.70
2023-11-30T22:56:36.802Z,46.50
2023-11-30T22:59:03.583Z,56.85
2023-11-30T23:01:31.530Z,52.45
2023-11-30T23:03:58.509Z,50.45
2023-11-30T23:06:25.698Z,50.35
2023-11-30T23:08:52.705Z,53.40
2023-11-30T23:11:19.308Z,50.55
2023-11-30T23:13:45.918Z,47.97
2023-11-30T23:16:12.852Z,54.97
2023-11-30T23:18:39.531Z,50.88
2023-11-30T23:21:06.420Z,46.15
2023-11-30T23:23:33.093Z,53.03
2023-11-30T23:26:01.081Z,50.13
2023-11-30T23:28:27.831Z,51.47
2023-11-30T23:30:54.542Z,51.97
2023-11-30T23:33:21.467Z,47.55
2023-11-30T23:35:48.465Z,50.85
2023-11-30T23:38:14.994Z,51.80
2023-11-30T23:40:41.573Z,46.10
2023-11-30T23:43:08.320Z,46.20
2023-11-30T23:45:34.935Z,44.38
2023-11-30T23:48:01.532Z,52.65
2023-11-30T23:50:28.276Z,52.35
2023-11-30T23:52:54.827Z,51.92
2023-11-30T23:55:21.377Z,53.60
2023-11-30T23:57:47.983Z,48.53
